createdAt,value
2022-11-16T00:04:23.332Z,9.08
2022-11-16T00:09:22.840Z,9.08
2022-11-16T00:14:35.932Z,9.02
2022-11-16T00:19:34.832Z,8.95
2022-11-16T00:24:43.591Z,9.08
2022-11-16T00:29:41.915Z,9.14
2022-11-16T00:34:40.033Z,9.20
2022-11-16T00:39:44.464Z,9.32
2022-11-16T00:44:47.248Z,9.20
2022-11-16T00:49:45.025Z,9.20
2022-11-16T00:54:46.813Z,9.08
2022-11-16T00:59:47.234Z,9.08
2022-11-16T01:04:47.160Z,8.99
2022-11-16T01:09:46.303Z,9.09
2022-11-16T01:14:53.566Z,8.91
2022-11-16T01:19:56.755Z,8.79
2022-11-16T01:24:58.016Z,8.88
2022-11-16T01:29:57.056Z,8.96
2022-11-16T01:35:02.055Z,9.00
2022-11-16T01:40:08.453Z,9.02
2022-11-16T01:45:25.336Z,8.95
2022-11-16T01:50:27.685Z,8.95
2022-11-16T01:55:26.086Z,8.78
2022-11-16T02:00:38.181Z,8.66
2022-11-16T02:06:09.603Z,8.66
2022-11-16T02:11:32.490Z,8.68
2022-11-16T02:16:33.914Z,8.76
2022-11-16T02:22:01.835Z,8.65
2022-11-16T02:27:14.994Z,8.56
2022-11-16T02:32:17.378Z,8.52
2022-11-16T02:37:21.607Z,8.52
2022-11-16T02:42:22.962Z,8.58
2022-11-16T02:47:22.212Z,8.62
2022-11-16T02:52:23.857Z,8.65
2022-11-16T02:57:32.239Z,8.59
2022-11-16T03:02:54.149Z,8.46
2022-11-16T03:07:53.650Z,8.54
2022-11-16T03:12:55.645Z,8.52
2022-11-16T03:17:57.792Z,8.60
2022-11-16T03:22:59.605Z,8.71
2022-11-16T03:27:59.774Z,8.61
2022-11-16T03:33:04.827Z,8.76
2022-11-16T03:38:04.409Z,8.84
2022-11-16T03:43:06.304Z,8.90
2022-11-16T03:48:03.908Z,8.91
2022-11-16T03:53:04.813Z,8.96
2022-11-16T03:58:07.935Z,9.03
2022-11-16T04:03:06.518Z,8.95
2022-11-16T04:08:27.040Z,8.96
2022-11-16T04:13:50.754Z,8.92
2022-11-16T04:19:09.458Z,8.82
2022-11-16T04:24:16.460Z,8.93
2022-11-16T04:29:23.921Z,8.98
2022-11-16T04:34:53.925Z,9.01
2022-11-16T04:39:53.190Z,9.00
2022-11-16T04:45:14.363Z,9.06
2022-11-16T04:50:21.054Z,9.08
2022-11-16T04:55:23.014Z,9.11
2022-11-16T05:00:23.787Z,9.14
2022-11-16T05:05:27.190Z,9.05
2022-11-16T05:10:26.097Z,8.95
2022-11-16T05:15:25.689Z,9.02
2022-11-16T05:20:46.022Z,9.14
2022-11-16T05:25:46.048Z,9.09
2022-11-16T05:30:46.080Z,9.12
2022-11-16T05:35:50.748Z,9.20
2022-11-16T05:40:51.966Z,9.36
2022-11-16T05:45:53.985Z,9.28
2022-11-16T05:51:01.281Z,9.08
2022-11-16T05:56:06.909Z,9.04
2022-11-16T06:01:11.753Z,9.01
2022-11-16T06:06:13.702Z,8.93
2022-11-16T06:11:16.267Z,9.12
2022-11-16T06:16:19.235Z,9.21
2022-11-16T06:21:22.803Z,9.09
2022-11-16T06:26:23.327Z,9.12
2022-11-16T06:31:22.874Z,9.14
2022-11-16T06:36:23.717Z,9.28
2022-11-16T06:41:26.505Z,9.22
2022-11-16T06:46:26.670Z,9.16
2022-11-16T06:51:26.378Z,9.19
2022-11-16T06:56:25.210Z,9.13
2022-11-16T07:01:29.047Z,9.12
2022-11-16T07:06:34.296Z,9.24
2022-11-16T07:11:32.244Z,9.35
2022-11-16T07:16:33.197Z,9.38
2022-11-16T07:21:34.695Z,9.45
2022-11-16T07:26:38.747Z,9.36
2022-11-16T07:31:44.384Z,9.40
2022-11-16T07:37:26.117Z,9.41
2022-11-16T07:42:27.893Z,9.46
2022-11-16T07:47:53.734Z,9.42
2022-11-16T07:53:23.670Z,9.49
2022-11-16T07:58:23.372Z,9.65
2022-11-16T08:03:24.823Z,9.42
2022-11-16T08:08:37.110Z,9.58
2022-11-16T08:13:36.082Z,9.53
2022-11-16T08:18:38.564Z,9.48
2022-11-16T08:23:37.888Z,9.55
2022-11-16T08:28:37.922Z,9.61
2022-11-16T08:33:51.503Z,9.71
2022-11-16T08:38:52.738Z,9.63
2022-11-16T08:43:56.260Z,9.59
2022-11-16T08:49:05.232Z,9.72
2022-11-16T08:54:07.866Z,9.63
2022-11-16T08:59:10.813Z,9.71
2022-11-16T09:04:20.825Z,9.82
2022-11-16T09:09:39.973Z,9.80
2022-11-16T09:14:38.276Z,9.99
2022-11-16T09:19:47.265Z,9.93
2022-11-16T09:24:45.412Z,9.90
2022-11-16T09:29:46.715Z,10.05
2022-11-16T09:35:00.561Z,9.86
2022-11-16T09:39:58.580Z,10.06
2022-11-16T09:45:00.968Z,9.88
2022-11-16T09:50:04.395Z,10.11
2022-11-16T09:55:04.445Z,10.21
2022-11-16T10:00:05.971Z,10.27
2022-11-16T10:05:26.648Z,10.34
2022-11-16T10:10:40.938Z,10.44
2022-11-16T10:15:46.850Z,10.44
2022-11-16T10:20:51.088Z,10.46
2022-11-16T10:25:54.600Z,10.70
2022-11-16T10:31:02.074Z,10.87
2022-11-16T10:36:01.839Z,10.90
2022-11-16T10:41:19.099Z,10.71
2022-11-16T10:46:35.602Z,10.80
2022-11-16T10:51:36.935Z,10.96
2022-11-16T10:56:41.815Z,10.82
2022-11-16T11:01:51.242Z,10.89
2022-11-16T11:06:54.457Z,10.85
2022-11-16T11:12:17.830Z,11.17
2022-11-16T11:17:21.092Z,11.23
2022-11-16T11:22:23.179Z,11.10
2022-11-16T11:27:34.508Z,11.18
2022-11-16T11:32:35.556Z,11.28
2022-11-16T11:37:37.090Z,11.29
2022-11-16T11:42:39.022Z,11.24
2022-11-16T11:47:57.883Z,11.36
2022-11-16T11:53:06.079Z,11.37
2022-11-16T11:58:04.944Z,11.19
2022-11-16T12:03:25.844Z,11.21
2022-11-16T12:08:29.921Z,11.00
2022-11-16T12:13:46.007Z,11.06
2022-11-16T12:18:46.473Z,11.14
2022-11-16T12:24:19.604Z,11.26
2022-11-16T12:29:29.398Z,11.30
2022-11-16T12:34:34.094Z,11.64
2022-11-16T12:39:38.581Z,11.60
2022-11-16T12:44:56.669Z,11.62
2022-11-16T12:49:57.148Z,11.44
2022-11-16T13:00:23.847Z,11.51
2022-11-16T13:05:25.511Z,11.41
2022-11-16T13:10:28.487Z,11.46
2022-11-16T13:15:35.182Z,11.47
2022-11-16T13:20:40.839Z,11.68
2022-11-16T13:25:44.289Z,11.85
2022-11-16T13:30:46.739Z,11.90
2022-11-16T13:35:45.198Z,12.04
2022-11-16T13:40:46.171Z,12.03
2022-11-16T13:45:56.477Z,11.66
2022-11-16T13:51:04.431Z,11.37
2022-11-16T13:56:05.005Z,11.34
2022-11-16T14:01:13.044Z,11.18
2022-11-16T14:06:32.886Z,11.19
2022-11-16T14:11:37.272Z,11.16
2022-11-16T14:16:48.922Z,11.04
2022-11-16T14:22:01.799Z,10.95
2022-11-16T14:27:04.869Z,10.96
2022-11-16T14:32:04.626Z,10.93
2022-11-16T14:37:03.591Z,10.75
2022-11-16T14:42:05.592Z,10.64
2022-11-16T14:47:13.184Z,10.55
2022-11-16T14:52:18.290Z,10.50
2022-11-16T14:57:28.289Z,10.30
2022-11-16T15:02:56.412Z,9.99
2022-11-16T15:08:00.197Z,9.93
2022-11-16T15:24:30.549Z,10.04
2022-11-16T15:29:32.699Z,9.81
2022-11-16T15:35:12.355Z,9.77
2022-11-16T15:40:46.063Z,9.73
2022-11-16T15:45:57.478Z,9.65
2022-11-16T15:51:21.139Z,9.63
2022-11-16T15:56:54.786Z,9.88
2022-11-16T16:01:54.479Z,9.83
2022-11-16T16:06:53.457Z,9.80
2022-11-16T16:11:54.820Z,9.72
2022-11-16T16:16:59.687Z,9.66
2022-11-16T16:22:01.481Z,9.60
2022-11-16T16:27:01.194Z,9.71
2022-11-16T16:43:34.077Z,10.12
2022-11-16T16:48:41.793Z,10.09
2022-11-16T16:53:58.982Z,10.13
2022-11-16T16:59:08.601Z,10.00
2022-11-16T17:04:10.162Z,10.01
2022-11-16T17:09:12.465Z,10.08
2022-11-16T17:14:23.189Z,10.32
2022-11-16T17:19:52.263Z,10.08
2022-11-16T17:24:57.223Z,9.94
2022-11-16T17:30:01.967Z,10.07
2022-11-16T17:35:06.732Z,10.07
2022-11-16T17:46:26.888Z,10.09
2022-11-16T17:51:26.694Z,10.24
2022-11-16T17:56:28.677Z,9.81
2022-11-16T18:01:29.883Z,9.63
2022-11-16T18:06:33.851Z,9.76
2022-11-16T18:11:46.865Z,9.52
2022-11-16T18:16:50.971Z,9.58
2022-11-16T18:21:57.199Z,9.81
2022-11-16T18:26:54.767Z,9.79
2022-11-16T18:31:53.131Z,9.80
2022-11-16T18:36:54.752Z,9.68
2022-11-16T18:41:56.524Z,10.06
2022-11-16T18:46:59.284Z,10.35
2022-11-16T18:52:00.819Z,10.49
2022-11-16T18:56:59.819Z,10.62
2022-11-16T19:01:59.245Z,10.24
2022-11-16T19:07:00.784Z,10.51
2022-11-16T19:11:58.283Z,10.75
2022-11-16T19:16:57.397Z,10.60
2022-11-16T19:21:57.213Z,9.94
2022-11-16T19:26:58.626Z,10.17
2022-11-16T19:31:58.488Z,10.17
2022-11-16T19:36:58.188Z,10.31
2022-11-16T19:41:59.833Z,10.06
2022-11-16T19:46:59.870Z,10.20
2022-11-16T19:52:04.491Z,10.49
2022-11-16T19:57:05.228Z,10.19
2022-11-16T20:02:08.042Z,10.34
2022-11-16T20:07:07.759Z,10.65
2022-11-16T20:12:06.680Z,10.59
2022-11-16T20:17:06.178Z,10.73
2022-11-16T20:22:08.607Z,10.15
2022-11-16T20:27:08.102Z,10.35
2022-11-16T20:32:07.350Z,10.63
2022-11-16T20:37:06.999Z,10.33
2022-11-16T20:42:06.063Z,10.39
2022-11-16T20:47:07.458Z,10.56
2022-11-16T20:52:08.335Z,10.65
2022-11-16T20:57:08.751Z,10.96
2022-11-16T21:02:06.870Z,10.98
2022-11-16T21:07:05.309Z,10.91
2022-11-16T21:12:24.503Z,11.02
2022-11-16T21:17:23.439Z,10.87
2022-11-16T21:22:29.593Z,10.68
2022-11-16T21:27:30.847Z,11.04
2022-11-16T21:32:32.013Z,11.12
2022-11-16T21:37:31.332Z,10.71
2022-11-16T21:42:50.207Z,10.83
2022-11-16T21:47:55.048Z,10.96
2022-11-16T21:52:55.494Z,11.03
2022-11-16T21:57:55.974Z,11.05
2022-11-16T22:02:58.391Z,11.12
2022-11-16T22:07:56.178Z,11.15
2022-11-16T22:12:56.599Z,11.19
2022-11-16T22:17:57.929Z,11.21
2022-11-16T22:22:55.869Z,11.16
2022-11-16T22:28:19.202Z,11.23
2022-11-16T22:33:15.153Z,11.27
2022-11-16T22:38:14.557Z,11.11
2022-11-16T22:43:13.580Z,11.11
2022-11-16T22:48:15.912Z,11.19
2022-11-16T22:53:18.159Z,11.23
2022-11-16T22:58:19.889Z,11.25
2022-11-16T23:03:18.983Z,11.12
2022-11-16T23:08:16.243Z,11.21
2022-11-16T23:13:38.035Z,11.25
2022-11-16T23:18:46.222Z,11.00
2022-11-16T23:24:04.227Z,11.16
2022-11-16T23:29:03.132Z,11.22
2022-11-16T23:34:03.229Z,11.28
2022-11-16T23:39:08.635Z,11.35
2022-11-16T23:44:05.781Z,11.08
2022-11-16T23:49:05.945Z,11.04
2022-11-16T23:54:06.003Z,10.92
2022-11-16T23:59:04.541Z,11.03
